Titan — WYA3059 — position and weather

sailwx.info

Track history (hours):
 
Tides and Currents Weather Stations Pressure Air Temp Water Temp Dewpoint Dewpoint Depression Visibility Wind Speed Wind Dir Waves Ship Positions

Titan

Owner: G & H Towing Company, GALVESTON, TX. More information available from US FCC via Universal Licensing System and Coast Guard Vessel Documentation Center.

Last reported at 2018-Jun-26 21:36 UTC. Time now 2018-Jul-22 12:47 UTC.
Position N 29°19' W 094°47'.
Warning: this ship's position is 25 days out of date.

Length 27 m; draft 5 m.

Type: Tug. MMSI: 366921850.

Date/timePositionNaut miles runAvg speedWind from/ knotsBaromVisibWave heightAir tempDewpointWater temp
2018-Jun-26 21:36N 29°19' W 094°47'0 0.0
2018-Jun-26 21:15N 29°19' W 094°47'0 0.0
2018-Jun-26 21:00N 29°19' W 094°47'0 0.0
2018-Jun-26 20:30N 29°19' W 094°47'0 0.0
2018-Jun-26 18:12N 29°19' W 094°47'0 0.0
2018-Jun-26 17:54N 29°19' W 094°47'0 0.0
2018-Jun-26 11:12N 29°19' W 094°47'0 0.0
2018-Jun-26 10:48N 29°19' W 094°47'0 0.0
2018-Jun-26 10:00N 29°19' W 094°47'2 3.5
2018-Jun-26 09:30N 29°21' W 094°47'11 8.9
2018-Jun-26 08:17N 29°31' W 094°53'3 9.5
2018-Jun-26 08:00N 29°33' W 094°54'5 9.9
2018-Jun-26 07:30N 29°37' W 094°57'5 9.8
2018-Jun-26 07:00N 29°42' W 094°60'7 0.2
2018-Jun-24 20:08N 29°44' W 095°07'0 0.0
2018-Jun-23 06:31N 29°44' W 095°07'0 0.0
2018-Jun-23 06:10N 29°44' W 095°07'0 0.0
2018-Jun-23 05:40N 29°44' W 095°07'0 2.2
2018-Jun-23 05:30N 29°44' W 095°07'0 0.1
2018-Jun-23 04:59N 29°44' W 095°07'0 0.3
2018-Jun-23 04:30N 29°44' W 095°07'1 0.0
2018-Jun-22 07:54N 29°44' W 095°07'0 0.0
2018-Jun-22 06:00N 29°44' W 095°07'0 0.0
2018-Jun-22 05:12N 29°44' W 095°07'0 0.0
2018-Jun-22 04:54N 29°44' W 095°07'0 0.0
2018-Jun-22 04:30N 29°44' W 095°07'0 0.0
2018-Jun-22 03:45N 29°44' W 095°07'0 0.0
2018-Jun-22 03:18N 29°44' W 095°07'6 1.0
2018-Jun-21 21:55N 29°42' W 095°01'4 8.7
2018-Jun-21 21:26N 29°39' W 094°58'2 4.8
2018-Jun-21 21:00N 29°37' W 094°59'1 1.8
2018-Jun-21 20:30N 29°37' W 094°60'0 0.0
2018-Jun-21 19:12N 29°37' W 094°60'0 0.0
2018-Jun-21 18:09N 29°37' W 094°60'0 0.1
2018-Jun-21 17:57N 29°37' W 094°60'0 0.0
2018-Jun-21 17:27N 29°37' W 094°60'0 0.0
2018-Jun-21 16:54N 29°37' W 094°60'0 0.0
2018-Jun-21 16:21N 29°37' W 094°60'0 0.0
2018-Jun-21 16:00N 29°37' W 094°60'0 0.0
2018-Jun-21 15:30N 29°37' W 094°60'0 0.0
2018-Jun-21 14:57N 29°37' W 094°60'0 0.0
2018-Jun-21 14:21N 29°37' W 094°60'0 0.0
2018-Jun-21 13:56N 29°37' W 094°60'0 0.9
2018-Jun-21 13:30N 29°37' W 095°00'1 1.8
2018-Jun-21 12:58N 29°37' W 095°01'1 1.7
2018-Jun-21 12:30N 29°37' W 095°01'0 0.1
2018-Jun-21 11:59N 29°37' W 095°01'0 0.0
2018-Jun-21 11:29N 29°37' W 095°01'0 0.0
2018-Jun-21 10:59N 29°37' W 095°01'0 0.0
2018-Jun-21 10:26N 29°37' W 095°01'0 0.0
2018-Jun-21 09:59N 29°37' W 095°01'0 0.0
2018-Jun-21 09:29N 29°37' W 095°01'0 0.0
2018-Jun-21 08:59N 29°37' W 095°01'0 0.0
2018-Jun-21 08:29N 29°37' W 095°01'0 0.0
2018-Jun-21 07:59N 29°37' W 095°01'0 0.0
2018-Jun-21 07:29N 29°37' W 095°01'0 0.0
2018-Jun-21 06:56N 29°37' W 095°01'0 0.0
2018-Jun-21 06:17N 29°37' W 095°01'0 0.0
2018-Jun-21 05:59N 29°37' W 095°01'0 0.0
2018-Jun-21 05:29N 29°37' W 095°01'0 0.0
2018-Jun-21 04:56N 29°37' W 095°01'0 0.0
2018-Jun-21 04:29N 29°37' W 095°01'0 0.0
2018-Jun-21 03:59N 29°37' W 095°01'0 0.0
2018-Jun-21 03:26N 29°37' W 095°01'0 0.0
2018-Jun-21 01:43N 29°37' W 095°01'0 0.0
2018-Jun-21 00:43N 29°37' W 095°01'0 0.0
2018-Jun-21 00:08N 29°37' W 095°01'0 0.1
2018-Jun-21 00:00N 29°37' W 095°01'1 1.7
2018-Jun-20 23:30N 29°37' W 095°02'0 0.3
2018-Jun-20 23:00N 29°37' W 095°01'0 0.2
2018-Jun-20 21:28N 29°37' W 095°01'1 0.3
2018-Jun-20 19:56N 29°37' W 095°01'0 0.0
2018-Jun-20 19:26N 29°37' W 095°01'0 0.0
2018-Jun-20 18:11N 29°37' W 095°01'0 0.0
2018-Jun-20 17:56N 29°37' W 095°01'0 0.0
2018-Jun-20 16:38N 29°37' W 095°01'0 0.0
2018-Jun-20 16:26N 29°37' W 095°01'0 0.0
2018-Jun-20 15:38N 29°37' W 095°01'0 0.0
2018-Jun-20 15:26N 29°37' W 095°01'0 0.0
2018-Jun-20 14:59N 29°37' W 095°01'0 0.0
2018-Jun-20 14:14N 29°37' W 095°01'0 0.0
2018-Jun-20 13:50N 29°37' W 095°01'0 0.0
2018-Jun-20 12:41N 29°37' W 095°01'0 0.0
2018-Jun-20 12:11N 29°37' W 095°01'0 0.0
2018-Jun-20 11:59N 29°37' W 095°01'0 0.0
2018-Jun-20 10:35N 29°37' W 095°01'0 0.0
2018-Jun-20 09:14N 29°37' W 095°01'0 0.0
2018-Jun-20 08:56N 29°37' W 095°01'0 0.0
2018-Jun-20 08:23N 29°37' W 095°01'0 0.0
2018-Jun-20 07:59N 29°37' W 095°01'0 0.0
2018-Jun-20 06:44N 29°37' W 095°01'0 0.0
2018-Jun-20 06:23N 29°37' W 095°01'0 0.0
2018-Jun-20 05:59N 29°37' W 095°01'1 0.9
2018-Jun-20 05:26N 29°37' W 095°01'0 0.0
2018-Jun-20 04:48N 29°37' W 095°01'2 6.6
2018-Jun-20 04:30N 29°37' W 094°59'4 6.8
2018-Jun-20 03:50N 29°41' W 094°59'0 0.0
2018-Jun-19 04:10N 29°41' W 094°59'3 8.7
2018-Jun-19 03:53N 29°39' W 094°58'2 6.2
2018-Jun-19 03:30N 29°37' W 094°58'2 3.2
2018-Jun-19 02:44N 29°37' W 095°01'0 0.5
2018-Jun-19 02:27N 29°37' W 095°01'1 2.4
2018-Jun-19 02:00N 29°37' W 095°00'2 4.3
2018-Jun-19 01:30N 29°37' W 094°58'4 7.5
2018-Jun-19 00:58N 29°41' W 094°59'3 0.1
2018-Jun-17 12:57N 29°42' W 095°01'4 8.5
2018-Jun-17 12:30N 29°39' W 094°58'3 5.3
2018-Jun-17 12:00N 29°37' W 094°59'2 2.8
2018-Jun-17 11:26N 29°37' W 095°01'0 0.0
2018-Jun-17 10:59N 29°37' W 095°01'0 0.0
2018-Jun-17 10:29N 29°37' W 095°01'0 0.0
2018-Jun-17 09:59N 29°37' W 095°01'0 0.0
2018-Jun-17 09:29N 29°37' W 095°01'0 0.0
2018-Jun-17 08:59N 29°37' W 095°01'0 0.0
2018-Jun-17 08:29N 29°37' W 095°01'0 0.0
2018-Jun-17 07:59N 29°37' W 095°01'0 0.0
2018-Jun-17 07:29N 29°37' W 095°01'0 0.0
2018-Jun-17 06:59N 29°37' W 095°01'0 0.0
2018-Jun-17 06:29N 29°37' W 095°01'0 0.0
2018-Jun-17 05:59N 29°37' W 095°01'0 0.0
2018-Jun-17 05:29N 29°37' W 095°01'0 0.0
2018-Jun-17 04:59N 29°37' W 095°01'0 0.0
2018-Jun-17 04:29N 29°37' W 095°01'0 0.0
2018-Jun-17 03:59N 29°37' W 095°01'0 0.0
2018-Jun-17 03:29N 29°37' W 095°01'0 0.0
2018-Jun-17 02:59N 29°37' W 095°01'0 0.0
2018-Jun-17 02:29N 29°37' W 095°01'0 0.0
2018-Jun-17 01:59N 29°37' W 095°01'0 0.0
2018-Jun-17 01:29N 29°37' W 095°01'0 0.0
2018-Jun-17 00:56N 29°37' W 095°01'0 0.0
2018-Jun-17 00:23N 29°37' W 095°01'0 0.0
2018-Jun-16 23:59N 29°37' W 095°01'0 0.0
2018-Jun-16 23:29N 29°37' W 095°01'0 0.0
2018-Jun-16 22:56N 29°37' W 095°01'0 0.0
2018-Jun-16 22:26N 29°37' W 095°01'0 0.9
2018-Jun-16 21:58N 29°37' W 095°02'  
Track history (hours):
 
Tides and Currents Weather Stations Pressure Air Temp Water Temp Dewpoint Dewpoint Depression Visibility Wind Speed Wind Dir Waves Ship Positions

Titan

Owner: G & H Towing Company, GALVESTON, TX. More information available from US FCC via Universal Licensing System and Coast Guard Vessel Documentation Center.

Last reported at 2018-Jun-26 21:36 UTC. Time now 2018-Jul-22 12:47 UTC.
Position N 29°19' W 094°47'.
Warning: this ship's position is 25 days out of date.

Length 27 m; draft 5 m.

Type: Tug. MMSI: 366921850.

Date/timePositionNaut miles runAvg speedWind from/ knotsBaromVisibWave heightAir tempDewpointWater temp
2018-Jun-26 21:36N 29°19' W 094°47'0 0.0
2018-Jun-26 21:15N 29°19' W 094°47'0 0.0
2018-Jun-26 21:00N 29°19' W 094°47'0 0.0
2018-Jun-26 20:30N 29°19' W 094°47'0 0.0
2018-Jun-26 18:12N 29°19' W 094°47'0 0.0
2018-Jun-26 17:54N 29°19' W 094°47'0 0.0
2018-Jun-26 11:12N 29°19' W 094°47'0 0.0
2018-Jun-26 10:48N 29°19' W 094°47'0 0.0
2018-Jun-26 10:00N 29°19' W 094°47'2 3.5
2018-Jun-26 09:30N 29°21' W 094°47'11 8.9
2018-Jun-26 08:17N 29°31' W 094°53'3 9.5
2018-Jun-26 08:00N 29°33' W 094°54'5 9.9
2018-Jun-26 07:30N 29°37' W 094°57'5 9.8
2018-Jun-26 07:00N 29°42' W 094°60'7 0.2
2018-Jun-24 20:08N 29°44' W 095°07'0 0.0
2018-Jun-23 06:31N 29°44' W 095°07'0 0.0
2018-Jun-23 06:10N 29°44' W 095°07'0 0.0
2018-Jun-23 05:40N 29°44' W 095°07'0 2.2
2018-Jun-23 05:30N 29°44' W 095°07'0 0.1
2018-Jun-23 04:59N 29°44' W 095°07'0 0.3
2018-Jun-23 04:30N 29°44' W 095°07'1 0.0
2018-Jun-22 07:54N 29°44' W 095°07'0 0.0
2018-Jun-22 06:00N 29°44' W 095°07'0 0.0
2018-Jun-22 05:12N 29°44' W 095°07'0 0.0
2018-Jun-22 04:54N 29°44' W 095°07'0 0.0
2018-Jun-22 04:30N 29°44' W 095°07'0 0.0
2018-Jun-22 03:45N 29°44' W 095°07'0 0.0
2018-Jun-22 03:18N 29°44' W 095°07'6 1.0
2018-Jun-21 21:55N 29°42' W 095°01'4 8.7
2018-Jun-21 21:26N 29°39' W 094°58'2 4.8
2018-Jun-21 21:00N 29°37' W 094°59'1 1.8
2018-Jun-21 20:30N 29°37' W 094°60'0 0.0
2018-Jun-21 19:12N 29°37' W 094°60'0 0.0
2018-Jun-21 18:09N 29°37' W 094°60'0 0.1
2018-Jun-21 17:57N 29°37' W 094°60'0 0.0
2018-Jun-21 17:27N 29°37' W 094°60'0 0.0
2018-Jun-21 16:54N 29°37' W 094°60'0 0.0
2018-Jun-21 16:21N 29°37' W 094°60'0 0.0
2018-Jun-21 16:00N 29°37' W 094°60'0 0.0
2018-Jun-21 15:30N 29°37' W 094°60'0 0.0
2018-Jun-21 14:57N 29°37' W 094°60'0 0.0
2018-Jun-21 14:21N 29°37' W 094°60'0 0.0
2018-Jun-21 13:56N 29°37' W 094°60'0 0.9
2018-Jun-21 13:30N 29°37' W 095°00'1 1.8
2018-Jun-21 12:58N 29°37' W 095°01'1 1.7
2018-Jun-21 12:30N 29°37' W 095°01'0 0.1
2018-Jun-21 11:59N 29°37' W 095°01'0 0.0
2018-Jun-21 11:29N 29°37' W 095°01'0 0.0
2018-Jun-21 10:59N 29°37' W 095°01'0 0.0
2018-Jun-21 10:26N 29°37' W 095°01'0 0.0
2018-Jun-21 09:59N 29°37' W 095°01'0 0.0
2018-Jun-21 09:29N 29°37' W 095°01'0 0.0
2018-Jun-21 08:59N 29°37' W 095°01'0 0.0
2018-Jun-21 08:29N 29°37' W 095°01'0 0.0
2018-Jun-21 07:59N 29°37' W 095°01'0 0.0
2018-Jun-21 07:29N 29°37' W 095°01'0 0.0
2018-Jun-21 06:56N 29°37' W 095°01'0 0.0
2018-Jun-21 06:17N 29°37' W 095°01'0 0.0
2018-Jun-21 05:59N 29°37' W 095°01'0 0.0
2018-Jun-21 05:29N 29°37' W 095°01'0 0.0
2018-Jun-21 04:56N 29°37' W 095°01'0 0.0
2018-Jun-21 04:29N 29°37' W 095°01'0 0.0
2018-Jun-21 03:59N 29°37' W 095°01'0 0.0
2018-Jun-21 03:26N 29°37' W 095°01'0 0.0
2018-Jun-21 01:43N 29°37' W 095°01'0 0.0
2018-Jun-21 00:43N 29°37' W 095°01'0 0.0
2018-Jun-21 00:08N 29°37' W 095°01'0 0.1
2018-Jun-21 00:00N 29°37' W 095°01'1 1.7
2018-Jun-20 23:30N 29°37' W 095°02'0 0.3
2018-Jun-20 23:00N 29°37' W 095°01'0 0.2
2018-Jun-20 21:28N 29°37' W 095°01'1 0.3
2018-Jun-20 19:56N 29°37' W 095°01'0 0.0
2018-Jun-20 19:26N 29°37' W 095°01'0 0.0
2018-Jun-20 18:11N 29°37' W 095°01'0 0.0
2018-Jun-20 17:56N 29°37' W 095°01'0 0.0
2018-Jun-20 16:38N 29°37' W 095°01'0 0.0
2018-Jun-20 16:26N 29°37' W 095°01'0 0.0
2018-Jun-20 15:38N 29°37' W 095°01'0 0.0
2018-Jun-20 15:26N 29°37' W 095°01'0 0.0
2018-Jun-20 14:59N 29°37' W 095°01'0 0.0
2018-Jun-20 14:14N 29°37' W 095°01'0 0.0
2018-Jun-20 13:50N 29°37' W 095°01'0 0.0
2018-Jun-20 12:41N 29°37' W 095°01'0 0.0
2018-Jun-20 12:11N 29°37' W 095°01'0 0.0
2018-Jun-20 11:59N 29°37' W 095°01'0 0.0
2018-Jun-20 10:35N 29°37' W 095°01'0 0.0
2018-Jun-20 09:14N 29°37' W 095°01'0 0.0
2018-Jun-20 08:56N 29°37' W 095°01'0 0.0
2018-Jun-20 08:23N 29°37' W 095°01'0 0.0
2018-Jun-20 07:59N 29°37' W 095°01'0 0.0
2018-Jun-20 06:44N 29°37' W 095°01'0 0.0
2018-Jun-20 06:23N 29°37' W 095°01'0 0.0
2018-Jun-20 05:59N 29°37' W 095°01'1 0.9
2018-Jun-20 05:26N 29°37' W 095°01'0 0.0
2018-Jun-20 04:48N 29°37' W 095°01'2 6.6
2018-Jun-20 04:30N 29°37' W 094°59'4 6.8
2018-Jun-20 03:50N 29°41' W 094°59'0 0.0
2018-Jun-19 04:10N 29°41' W 094°59'3 8.7
2018-Jun-19 03:53N 29°39' W 094°58'2 6.2
2018-Jun-19 03:30N 29°37' W 094°58'2 3.2
2018-Jun-19 02:44N 29°37' W 095°01'0 0.5
2018-Jun-19 02:27N 29°37' W 095°01'1 2.4
2018-Jun-19 02:00N 29°37' W 095°00'2 4.3
2018-Jun-19 01:30N 29°37' W 094°58'4 7.5
2018-Jun-19 00:58N 29°41' W 094°59'3 0.1
2018-Jun-17 12:57N 29°42' W 095°01'4 8.5
2018-Jun-17 12:30N 29°39' W 094°58'3 5.3
2018-Jun-17 12:00N 29°37' W 094°59'2 2.8
2018-Jun-17 11:26N 29°37' W 095°01'0 0.0
2018-Jun-17 10:59N 29°37' W 095°01'0 0.0
2018-Jun-17 10:29N 29°37' W 095°01'0 0.0
2018-Jun-17 09:59N 29°37' W 095°01'0 0.0
2018-Jun-17 09:29N 29°37' W 095°01'0 0.0
2018-Jun-17 08:59N 29°37' W 095°01'0 0.0
2018-Jun-17 08:29N 29°37' W 095°01'0 0.0
2018-Jun-17 07:59N 29°37' W 095°01'0 0.0
2018-Jun-17 07:29N 29°37' W 095°01'0 0.0
2018-Jun-17 06:59N 29°37' W 095°01'0 0.0
2018-Jun-17 06:29N 29°37' W 095°01'0 0.0
2018-Jun-17 05:59N 29°37' W 095°01'0 0.0
2018-Jun-17 05:29N 29°37' W 095°01'0 0.0
2018-Jun-17 04:59N 29°37' W 095°01'0 0.0
2018-Jun-17 04:29N 29°37' W 095°01'0 0.0
2018-Jun-17 03:59N 29°37' W 095°01'0 0.0
2018-Jun-17 03:29N 29°37' W 095°01'0 0.0
2018-Jun-17 02:59N 29°37' W 095°01'0 0.0
2018-Jun-17 02:29N 29°37' W 095°01'0 0.0
2018-Jun-17 01:59N 29°37' W 095°01'0 0.0
2018-Jun-17 01:29N 29°37' W 095°01'0 0.0
2018-Jun-17 00:56N 29°37' W 095°01'0 0.0
2018-Jun-17 00:23N 29°37' W 095°01'0 0.0
2018-Jun-16 23:59N 29°37' W 095°01'0 0.0
2018-Jun-16 23:29N 29°37' W 095°01'0 0.0
2018-Jun-16 22:56N 29°37' W 095°01'0 0.0
2018-Jun-16 22:26N 29°37' W 095°01'0 0.9
2018-Jun-16 21:58N 29°37' W 095°02'  

Dump ship's entire track history